Time;durP1;ratioP1;P1;durP2;ratioP2;P2;SDS_P1;SDS_P2;PMS_P1;PMS_P2;Temp;Humidity;BMP_temperature;BMP_pressure;BME280_temperature;BME280_humidity;BME280_pressure;Samples;Min_cycle;Max_cycle;Signal;HPM_P1;HPM_P2
2023/09/16 00:01:10;;;;;;;13.45;7.53;;;16.60;71.00;;;;;;9171397;19;20045;-73
2023/09/16 00:04:18;;;;;;;14.02;6.88;;;16.30;70.80;;;;;;9171065;19;20018;-71
2023/09/16 00:07:23;;;;;;;10.93;6.95;;;16.30;70.90;;;;;;9168752;19;20010;-73
2023/09/16 00:10:31;;;;;;;13.48;7.00;;;16.30;71.00;;;;;;9170727;19;20011;-70
2023/09/16 00:13:41;;;;;;;12.38;6.93;;;16.40;72.30;;;;;;9167525;19;20436;-72
2023/09/16 00:16:49;;;;;;;10.10;6.53;;;16.30;72.00;;;;;;9164271;19;20018;-72
2023/09/16 00:19:54;;;;;;;15.07;7.18;;;16.40;73.10;;;;;;9168046;19;20376;-71
2023/09/16 00:23:04;;;;;;;14.80;7.05;;;16.30;71.30;;;;;;9168550;19;20022;-72
2023/09/16 00:26:09;;;;;;;11.75;7.28;;;16.30;71.40;;;;;;9169067;19;20021;-72
2023/09/16 00:29:20;;;;;;;16.58;7.00;;;16.30;71.30;;;;;;9166100;19;20513;-65
2023/09/16 00:32:27;;;;;;;13.13;6.95;;;16.30;71.50;;;;;;9165403;19;20019;-73
2023/09/16 00:35:35;;;;;;;13.40;7.45;;;16.30;71.50;;;;;;9165598;19;20452;-72
2023/09/16 00:38:42;;;;;;;12.48;7.47;;;16.30;71.60;;;;;;9166186;19;20358;-73
2023/09/16 00:41:50;;;;;;;14.25;7.30;;;16.30;71.60;;;;;;9165698;19;20007;-72
2023/09/16 00:44:58;;;;;;;13.93;6.97;;;16.30;71.70;;;;;;9168023;19;20014;-73
2023/09/16 00:48:06;;;;;;;12.30;6.78;;;16.30;71.90;;;;;;9168483;19;20027;-73
2023/09/16 00:51:13;;;;;;;12.40;7.22;;;16.30;71.80;;;;;;9165552;19;20365;-72
2023/09/16 00:54:22;;;;;;;12.88;6.93;;;16.30;71.90;;;;;;9168107;19;20006;-73
2023/09/16 00:57:29;;;;;;;10.60;6.55;;;16.30;71.90;;;;;;9167778;19;20021;-72
2023/09/16 01:00:39;;;;;;;14.73;7.28;;;16.30;71.90;;;;;;9167288;19;20022;-73
2023/09/16 01:03:45;;;;;;;13.32;6.93;;;16.30;72.00;;;;;;9165488;19;20019;-70
2023/09/16 01:06:53;;;;;;;20.73;8.55;;;16.30;72.10;;;;;;9167199;19;20139;-72
2023/09/16 01:09:59;;;;;;;10.55;7.28;;;16.30;72.20;;;;;;9167024;19;20022;-71
2023/09/16 01:13:06;;;;;;;12.30;7.47;;;16.30;72.30;;;;;;9163837;19;20014;-69
2023/09/16 01:16:20;;;;;;;15.18;8.07;;;16.30;74.80;;;;;;9160943;19;20010;-72
2023/09/16 01:19:38;;;;;;;12.32;7.28;;;16.30;73.10;;;;;;9167351;19;20029;-71
2023/09/16 01:22:45;;;;;;;11.07;6.95;;;16.20;72.20;;;;;;9167337;19;20487;-72
2023/09/16 01:25:55;;;;;;;14.85;7.50;;;16.20;72.10;;;;;;9166142;19;20006;-70
2023/09/16 01:29:01;;;;;;;13.93;7.63;;;16.10;72.70;;;;;;9164783;19;20006;-68
2023/09/16 01:32:12;;;;;;;13.07;7.20;;;16.20;72.90;;;;;;9161707;19;20017;-72
2023/09/16 01:35:20;;;;;;;16.67;7.53;;;16.20;72.40;;;;;;9163351;19;20010;-73
2023/09/16 01:38:29;;;;;;;12.23;7.78;;;16.20;72.40;;;;;;9163232;19;20494;-72
2023/09/16 01:41:38;;;;;;;13.52;7.00;;;16.20;72.40;;;;;;9164061;19;20025;-71
2023/09/16 01:44:45;;;;;;;15.23;7.15;;;16.20;72.60;;;;;;9163851;19;20051;-69
2023/09/16 01:47:52;;;;;;;12.23;7.53;;;16.20;73.60;;;;;;9163595;19;20026;-71
2023/09/16 01:50:59;;;;;;;14.15;7.75;;;16.20;76.10;;;;;;9161011;19;20014;-71
2023/09/16 01:54:05;;;;;;;12.40;7.65;;;16.10;72.50;;;;;;9161260;19;20019;-68
2023/09/16 01:57:15;;;;;;;11.60;6.80;;;16.10;72.50;;;;;;9163106;19;20465;-73
2023/09/16 02:00:21;;;;;;;11.90;7.60;;;16.10;72.60;;;;;;9163200;19;20110;-72
2023/09/16 02:03:28;;;;;;;10.48;7.07;;;16.00;73.00;;;;;;9162913;19;20039;-70
2023/09/16 02:06:33;;;;;;;9.48;6.55;;;16.00;72.60;;;;;;9163618;19;20010;-70
2023/09/16 02:09:43;;;;;;;11.40;7.28;;;16.00;72.60;;;;;;9163164;19;20022;-72
2023/09/16 02:12:52;;;;;;;12.88;7.32;;;16.00;72.70;;;;;;9162428;19;20133;-71
2023/09/16 02:15:59;;;;;;;11.23;7.65;;;16.00;72.90;;;;;;9160458;19;20033;-72
2023/09/16 02:19:06;;;;;;;13.63;7.75;;;15.90;72.80;;;;;;9163093;19;20362;-73
2023/09/16 02:22:13;;;;;;;15.73;7.43;;;15.90;72.80;;;;;;9163131;19;20006;-71
2023/09/16 02:25:19;;;;;;;12.25;7.03;;;15.90;72.90;;;;;;9164312;19;20019;-72
2023/09/16 02:28:29;;;;;;;10.85;6.57;;;15.90;73.00;;;;;;9161946;19;20017;-74
2023/09/16 02:31:34;;;;;;;11.82;7.10;;;15.80;72.90;;;;;;9163902;19;20382;-70
2023/09/16 02:34:42;;;;;;;17.05;6.88;;;15.80;72.90;;;;;;9161196;19;20336;-73
2023/09/16 02:37:47;;;;;;;12.98;7.05;;;15.80;73.00;;;;;;9162010;19;20029;-72
2023/09/16 02:40:55;;;;;;;10.55;7.30;;;15.80;73.00;;;;;;9162664;19;20014;-72
2023/09/16 02:44:03;;;;;;;11.40;7.28;;;15.80;73.10;;;;;;9162816;19;20538;-73
2023/09/16 02:47:11;;;;;;;9.43;6.63;;;15.70;73.20;;;;;;9163638;19;20444;-71
2023/09/16 02:50:16;;;;;;;11.32;7.05;;;15.70;73.20;;;;;;9161701;19;20020;-68
2023/09/16 02:53:23;;;;;;;11.30;6.68;;;15.70;73.30;;;;;;9160139;19;20021;-69
2023/09/16 02:56:29;;;;;;;14.57;6.90;;;15.60;73.30;;;;;;9161095;19;20026;-69
2023/09/16 02:59:39;;;;;;;12.40;7.32;;;15.60;73.30;;;;;;9161728;19;20021;-71
2023/09/16 03:02:49;;;;;;;14.00;7.68;;;15.60;73.50;;;;;;9161052;19;20017;-72
2023/09/16 03:05:57;;;;;;;13.77;7.13;;;15.50;73.60;;;;;;9160724;19;20018;-71
2023/09/16 03:09:03;;;;;;;12.05;7.85;;;15.50;73.50;;;;;;9161052;19;20019;-72
2023/09/16 03:12:11;;;;;;;13.23;7.28;;;15.50;73.60;;;;;;9161790;19;20043;-73
2023/09/16 03:15:19;;;;;;;11.45;6.63;;;15.50;73.60;;;;;;9152351;19;20439;-70
2023/09/16 03:18:27;;;;;;;11.80;6.50;;;15.40;73.70;;;;;;9163065;19;20018;-71
2023/09/16 03:21:32;;;;;;;10.07;6.75;;;15.40;73.70;;;;;;9167004;19;20103;-66
2023/09/16 03:24:43;;;;;;;9.07;6.22;;;15.50;74.00;;;;;;9163820;19;20014;-69
2023/09/16 03:27:48;;;;;;;12.02;6.78;;;15.60;77.70;;;;;;9166651;19;20025;-69
2023/09/16 03:30:59;;;;;;;9.85;6.88;;;15.50;74.00;;;;;;9165057;19;20045;-70
2023/09/16 03:34:06;;;;;;;11.60;6.75;;;15.40;73.90;;;;;;9162964;19;20015;-70
2023/09/16 03:37:14;;;;;;;10.90;6.90;;;15.40;73.90;;;;;;9163561;19;20017;-68
2023/09/16 03:40:19;;;;;;;10.52;6.45;;;15.40;73.90;;;;;;9163885;19;20054;-70
2023/09/16 03:43:27;;;;;;;11.75;7.13;;;15.40;74.00;;;;;;9163905;19;20022;-71
2023/09/16 03:46:35;;;;;;;11.95;7.57;;;15.40;75.80;;;;;;9163857;19;20015;-70
2023/09/16 03:49:45;;;;;;;13.30;7.18;;;15.40;74.20;;;;;;9167617;19;20764;-74
2023/09/16 03:52:51;;;;;;;10.35;6.95;;;15.40;74.20;;;;;;9167738;19;20018;-74
2023/09/16 03:55:58;;;;;;;11.32;7.43;;;15.40;74.20;;;;;;9168971;19;20018;-73
2023/09/16 03:59:04;;;;;;;14.98;7.80;;;15.40;74.30;;;;;;9169257;19;20484;-72
2023/09/16 04:02:15;;;;;;;11.27;7.65;;;15.40;74.30;;;;;;9169014;19;20030;-68
2023/09/16 04:05:20;;;;;;;9.88;7.47;;;15.30;74.40;;;;;;9171251;19;20010;-71
2023/09/16 04:08:28;;;;;;;19.65;8.25;;;15.40;74.40;;;;;;9170568;19;20025;-70
2023/09/16 04:11:45;;;;;;;20.85;8.05;;;15.40;74.50;;;;;;9170062;19;20014;-73
2023/09/16 04:14:52;;;;;;;12.18;7.68;;;15.40;74.50;;;;;;9161418;19;20022;-69
2023/09/16 04:18:00;;;;;;;15.18;7.47;;;15.40;74.60;;;;;;9167654;19;20011;-73
2023/09/16 04:21:08;;;;;;;12.77;7.82;;;15.50;74.80;;;;;;9167522;19;20023;-72
2023/09/16 04:24:13;;;;;;;11.00;7.35;;;15.50;74.70;;;;;;9166639;19;20732;-73
2023/09/16 04:27:20;;;;;;;14.07;8.27;;;15.50;74.70;;;;;;9167437;19;20026;-70
2023/09/16 04:30:26;;;;;;;13.93;8.32;;;15.50;74.80;;;;;;9166861;19;20124;-69
2023/09/16 04:33:37;;;;;;;14.50;8.40;;;15.50;74.90;;;;;;9166907;19;20496;-71
2023/09/16 04:36:44;;;;;;;14.50;8.55;;;15.60;75.00;;;;;;9166548;19;20018;-72
2023/09/16 04:39:51;;;;;;;16.00;7.90;;;15.50;74.90;;;;;;9167131;19;20447;-74
2023/09/16 04:42:57;;;;;;;12.77;8.93;;;15.50;74.90;;;;;;9167182;19;20014;-70
2023/09/16 04:46:05;;;;;;;13.05;8.70;;;15.50;74.90;;;;;;9166748;19;20772;-73
2023/09/16 04:49:25;;;;;;;13.80;8.10;;;15.50;75.00;;;;;;9168104;19;20022;-73
2023/09/16 04:52:33;;;;;;;11.98;8.15;;;15.60;75.10;;;;;;9167495;19;20021;-72
2023/09/16 04:55:41;;;;;;;21.00;8.73;;;15.60;75.10;;;;;;9163493;19;20015;-71
2023/09/16 04:58:49;;;;;;;15.55;7.75;;;15.60;75.10;;;;;;9167343;19;20499;-73
2023/09/16 05:01:55;;;;;;;16.38;8.80;;;15.60;75.10;;;;;;9166512;19;20021;-73
2023/09/16 05:05:06;;;;;;;13.65;7.88;;;15.80;75.20;;;;;;9167942;19;20022;-69
2023/09/16 05:08:11;;;;;;;13.88;8.15;;;15.60;75.20;;;;;;9165140;19;20014;-72
2023/09/16 05:11:19;;;;;;;14.60;8.27;;;15.60;75.20;;;;;;9165019;19;20025;-72
2023/09/16 05:14:29;;;;;;;12.88;8.38;;;15.70;75.20;;;;;;9156473;19;20027;-72
2023/09/16 05:17:36;;;;;;;16.65;8.55;;;15.60;75.20;;;;;;9163980;19;20026;-68
2023/09/16 05:20:45;;;;;;;12.45;8.60;;;15.60;75.20;;;;;;9159915;19;20025;-71
2023/09/16 05:23:54;;;;;;;13.07;8.10;;;15.60;75.30;;;;;;9157949;19;20018;-72
2023/09/16 05:27:03;;;;;;;12.25;7.82;;;15.70;75.30;;;;;;9155742;19;20044;-71
2023/09/16 05:30:12;;;;;;;15.00;7.75;;;15.60;75.40;;;;;;9158069;19;20018;-69
2023/09/16 05:33:18;;;;;;;14.00;8.55;;;15.70;75.40;;;;;;9166475;19;20025;-70
2023/09/16 05:36:27;;;;;;;12.75;8.68;;;15.70;75.50;;;;;;9162897;19;20014;-71
2023/09/16 05:39:34;;;;;;;14.27;9.13;;;15.70;75.60;;;;;;9163100;19;20025;-68
2023/09/16 05:42:42;;;;;;;13.60;8.70;;;15.70;75.60;;;;;;9164058;19;20010;-70
2023/09/16 05:45:52;;;;;;;12.32;8.75;;;15.70;75.60;;;;;;9163793;19;20019;-70
2023/09/16 05:49:09;;;;;;;12.00;8.63;;;15.70;75.70;;;;;;9162800;19;20762;-68
2023/09/16 05:52:18;;;;;;;17.90;9.05;;;15.70;75.70;;;;;;9164911;19;20464;-72
2023/09/16 05:55:26;;;;;;;14.05;8.60;;;15.80;75.70;;;;;;9162401;19;20397;-72
2023/09/16 05:58:32;;;;;;;14.52;9.57;;;15.80;75.70;;;;;;9162726;19;20018;-69
2023/09/16 06:01:40;;;;;;;18.60;9.93;;;15.90;75.90;;;;;;9160035;19;20709;-71
2023/09/16 06:04:46;;;;;;;14.25;9.65;;;15.80;75.80;;;;;;9162571;19;20029;-73
2023/09/16 06:07:57;;;;;;;16.52;10.30;;;15.90;75.80;;;;;;9160746;19;20018;-69
2023/09/16 06:11:07;;;;;;;14.13;9.10;;;15.90;75.90;;;;;;9163591;19;20049;-71
2023/09/16 06:14:15;;;;;;;15.68;9.95;;;15.90;75.80;;;;;;9162633;19;20515;-70
2023/09/16 06:17:22;;;;;;;13.88;9.63;;;16.00;75.90;;;;;;9158587;19;20022;-71
2023/09/16 06:20:31;;;;;;;17.60;9.30;;;16.00;76.00;;;;;;9161726;19;20017;-67
2023/09/16 06:23:39;;;;;;;14.30;8.93;;;16.00;76.00;;;;;;9162355;19;20380;-72
2023/09/16 06:26:46;;;;;;;14.95;9.13;;;16.10;76.10;;;;;;9163999;19;20017;-72
2023/09/16 06:29:52;;;;;;;16.10;9.60;;;16.10;76.10;;;;;;9162698;19;20350;-72
2023/09/16 06:33:01;;;;;;;16.75;10.07;;;16.20;76.20;;;;;;9162051;19;20021;-74
2023/09/16 06:36:07;;;;;;;16.23;10.10;;;16.20;76.20;;;;;;9164042;19;20010;-71
2023/09/16 06:39:17;;;;;;;13.93;9.68;;;16.20;76.20;;;;;;9165478;19;20022;-68
2023/09/16 06:42:22;;;;;;;20.48;10.23;;;16.30;76.40;;;;;;9164150;19;20082;-72
2023/09/16 06:45:34;;;;;;;16.73;9.85;;;16.40;76.40;;;;;;9161798;19;20014;-71
2023/09/16 06:48:39;;;;;;;15.82;10.25;;;16.40;76.40;;;;;;9163526;19;20045;-72
2023/09/16 06:51:47;;;;;;;16.13;10.57;;;16.40;76.40;;;;;;9164588;19;21025;-72
2023/09/16 06:54:55;;;;;;;14.80;9.65;;;16.50;76.50;;;;;;9170508;19;20025;-72
2023/09/16 06:58:04;;;;;;;14.80;9.45;;;16.60;76.90;;;;;;9170376;19;20014;-70
2023/09/16 07:01:11;;;;;;;12.90;9.32;;;16.70;77.30;;;;;;9170553;19;20655;-72
2023/09/16 07:04:18;;;;;;;16.77;9.77;;;16.80;78.60;;;;;;9171820;19;20036;-70
2023/09/16 07:07:25;;;;;;;14.65;9.07;;;16.70;77.50;;;;;;9169942;19;20026;-69
2023/09/16 07:10:37;;;;;;;14.25;9.80;;;16.90;78.60;;;;;;9171553;19;20492;-66
2023/09/16 07:13:43;;;;;;;16.13;9.45;;;16.90;77.00;;;;;;9172028;19;20015;-68
2023/09/16 07:16:50;;;;;;;27.77;9.98;;;16.90;76.90;;;;;;9161433;19;20014;-68
2023/09/16 07:19:55;;;;;;;15.75;8.85;;;17.00;76.80;;;;;;9170047;19;20025;-65
2023/09/16 07:23:03;;;;;;;12.75;8.73;;;17.10;77.10;;;;;;9169466;19;20010;-65
2023/09/16 07:26:11;;;;;;;15.93;8.13;;;17.10;77.10;;;;;;9168399;19;20014;-65
2023/09/16 07:29:21;;;;;;;15.50;8.95;;;17.20;77.00;;;;;;9168534;19;20010;-66
2023/09/16 07:32:27;;;;;;;14.88;9.32;;;17.30;77.10;;;;;;9168472;19;20438;-68
2023/09/16 07:35:35;;;;;;;13.13;9.45;;;17.40;77.30;;;;;;9166471;19;20010;-67
2023/09/16 07:38:40;;;;;;;13.25;9.45;;;17.50;78.20;;;;;;9169885;19;20022;-67
2023/09/16 07:41:50;;;;;;;14.52;8.95;;;17.60;78.80;;;;;;9170612;19;20038;-66
2023/09/16 07:44:55;;;;;;;15.77;10.70;;;17.80;81.40;;;;;;9169145;19;20471;-67
2023/09/16 07:48:03;;;;;;;18.45;11.43;;;17.60;76.70;;;;;;9169655;19;20021;-67
2023/09/16 07:51:08;;;;;;;17.40;10.32;;;17.70;76.80;;;;;;9167155;19;20476;-68
2023/09/16 07:54:16;;;;;;;16.05;9.73;;;17.80;76.80;;;;;;9167971;19;20014;-67
2023/09/16 07:57:24;;;;;;;20.45;10.18;;;17.80;76.80;;;;;;9166804;19;20014;-67
2023/09/16 08:00:31;;;;;;;14.90;9.90;;;18.00;76.80;;;;;;9169957;19;20030;-67
2023/09/16 08:03:37;;;;;;;14.80;9.75;;;18.00;76.80;;;;;;9165773;19;20472;-65
2023/09/16 08:06:45;;;;;;;16.70;11.18;;;18.10;76.80;;;;;;9169182;19;20014;-67
2023/09/16 08:09:50;;;;;;;17.67;11.68;;;18.20;76.90;;;;;;9166702;19;20014;-70
2023/09/16 08:13:01;;;;;;;20.55;12.35;;;18.30;77.00;;;;;;9165731;19;20010;-69
2023/09/16 08:16:06;;;;;;;17.13;10.95;;;18.50;77.30;;;;;;9163967;19;20026;-68
2023/09/16 08:19:16;;;;;;;15.85;10.38;;;18.60;77.10;;;;;;9169118;19;20014;-68
2023/09/16 08:22:22;;;;;;;13.68;9.20;;;18.80;77.30;;;;;;9166087;19;20023;-68
2023/09/16 08:25:30;;;;;;;16.95;10.48;;;19.00;77.30;;;;;;9167759;19;20019;-67
2023/09/16 08:28:38;;;;;;;17.95;10.50;;;19.10;77.10;;;;;;9166039;19;20639;-67
2023/09/16 08:31:45;;;;;;;13.57;9.75;;;19.30;77.20;;;;;;9167788;19;20022;-67
2023/09/16 08:34:52;;;;;;;14.52;9.52;;;19.40;77.20;;;;;;9168885;19;20432;-67
2023/09/16 08:38:02;;;;;;;15.18;9.77;;;19.60;77.60;;;;;;9164989;19;20141;-67
2023/09/16 08:41:14;;;;;;;12.95;9.50;;;19.80;80.00;;;;;;9167448;19;20017;-68
2023/09/16 08:44:25;;;;;;;22.40;10.25;;;20.00;79.80;;;;;;9163702;19;20022;-69
2023/09/16 08:47:35;;;;;;;15.35;10.38;;;20.10;77.30;;;;;;9163736;19;20025;-69
2023/09/16 08:50:43;;;;;;;17.23;11.07;;;20.20;76.30;;;;;;9159926;19;20025;-68
2023/09/16 08:53:50;;;;;;;14.63;9.38;;;20.60;77.60;;;;;;9161296;19;20021;-69
2023/09/16 08:56:59;;;;;;;16.70;10.68;;;20.60;76.20;;;;;;9161249;19;20021;-68
2023/09/16 09:00:08;;;;;;;17.70;11.07;;;20.70;76.00;;;;;;9165403;19;20807;-70
2023/09/16 09:03:15;;;;;;;16.25;10.43;;;20.90;75.90;;;;;;9168002;19;20722;-69
2023/09/16 09:06:22;;;;;;;14.45;9.70;;;21.10;75.80;;;;;;9165863;19;20021;-68
2023/09/16 09:09:45;;;;;;;13.40;9.70;;;21.20;75.70;;;;;;9164892;19;20029;-67
2023/09/16 09:12:51;;;;;;;13.07;9.32;;;21.50;78.10;;;;;;9166921;19;20669;-67
2023/09/16 09:16:12;;;;;;;13.32;8.00;;;21.30;75.40;;;;;;9157473;19;20077;-68
2023/09/16 09:19:18;;;;;;;9.85;6.82;;;21.70;75.30;;;;;;9166504;19;20022;-67
2023/09/16 09:22:26;;;;;;;12.40;6.22;;;21.80;75.00;;;;;;9165322;19;20029;-67
2023/09/16 09:25:36;;;;;;;10.80;6.53;;;22.00;74.80;;;;;;9164385;19;20014;-67
2023/09/16 09:28:46;;;;;;;11.02;7.30;;;;;;;;;;9165229;19;20114;-67
2023/09/16 09:31:57;;;;;;;11.25;7.50;;;22.40;74.00;;;;;;9164608;19;20015;-68
2023/09/16 09:35:08;;;;;;;12.90;7.30;;;22.50;74.40;;;;;;9166446;19;20021;-68
2023/09/16 09:38:13;;;;;;;10.45;6.72;;;22.70;74.40;;;;;;9161747;19;20019;-68
2023/09/16 09:41:21;;;;;;;8.73;6.13;;;22.90;74.60;;;;;;9166084;19;20029;-67
2023/09/16 09:44:26;;;;;;;9.48;6.90;;;23.00;74.50;;;;;;9163032;19;20040;-67
2023/09/16 09:47:37;;;;;;;9.60;6.95;;;23.20;74.30;;;;;;9166400;19;20018;-67
2023/09/16 09:50:42;;;;;;;10.40;6.80;;;23.40;74.30;;;;;;9164933;19;20455;-67
2023/09/16 09:53:50;;;;;;;13.60;6.65;;;23.50;73.50;;;;;;9164554;19;20025;-67
2023/09/16 09:56:55;;;;;;;13.90;6.93;;;23.80;73.20;;;;;;9163433;19;20388;-68
2023/09/16 10:00:04;;;;;;;7.55;5.05;;;24.00;72.80;;;;;;9164274;19;20015;-68
2023/09/16 10:03:20;;;;;;;7.57;5.00;;;24.20;72.50;;;;;;9163196;19;20035;-68
2023/09/16 10:06:28;;;;;;;9.35;5.60;;;24.60;72.30;;;;;;9164199;19;20503;-68
2023/09/16 10:09:33;;;;;;;12.93;5.40;;;24.60;71.90;;;;;;9163851;19;20824;-68
2023/09/16 10:12:41;;;;;;;10.68;5.93;;;24.80;71.60;;;;;;9164566;19;20019;-67
2023/09/16 10:15:49;;;;;;;13.80;5.90;;;24.90;71.30;;;;;;9161010;19;20417;-67
2023/09/16 10:19:00;;;;;;;6.78;5.25;;;25.00;71.00;;;;;;9160542;19;20431;-68
2023/09/16 10:22:05;;;;;;;9.57;5.22;;;25.20;70.90;;;;;;9164597;19;20010;-68
2023/09/16 10:25:14;;;;;;;11.15;5.88;;;25.20;70.80;;;;;;9164397;19;20022;-68
2023/09/16 10:28:20;;;;;;;10.00;4.97;;;25.40;70.60;;;;;;9164781;19;20018;-67
2023/09/16 10:31:30;;;;;;;7.05;4.88;;;25.50;70.50;;;;;;9163314;19;20341;-66
2023/09/16 10:34:41;;;;;;;6.03;4.07;;;25.60;70.50;;;;;;9163402;19;20038;-67
2023/09/16 10:37:53;;;;;;;9.98;4.95;;;25.70;70.30;;;;;;9161346;19;20029;-67
2023/09/16 10:40:59;;;;;;;7.20;4.63;;;25.80;71.20;;;;;;9162386;19;20483;-68
2023/09/16 10:44:07;;;;;;;9.13;5.03;;;26.00;74.10;;;;;;9162184;19;20006;-68
2023/09/16 10:47:13;;;;;;;7.65;4.63;;;26.00;70.50;;;;;;9162375;19;20023;-68
2023/09/16 10:50:28;;;;;;;7.57;4.20;;;26.10;71.40;;;;;;9161403;19;20021;-67
2023/09/16 10:53:36;;;;;;;6.53;4.05;;;26.30;70.70;;;;;;9162045;19;20442;-68
2023/09/16 10:56:46;;;;;;;7.28;4.72;;;26.40;72.60;;;;;;9161491;19;20018;-68
2023/09/16 10:59:54;;;;;;;9.18;6.13;;;26.60;70.20;;;;;;9163440;19;20338;-68
2023/09/16 11:03:05;;;;;;;14.98;7.13;;;26.60;69.80;;;;;;9161419;19;20025;-69
2023/09/16 11:06:13;;;;;;;16.20;7.22;;;26.70;70.30;;;;;;9162994;19;20021;-69
2023/09/16 11:09:22;;;;;;;9.07;6.47;;;27.00;70.10;;;;;;9163676;19;20014;-67
2023/09/16 11:12:28;;;;;;;9.82;6.30;;;27.00;69.50;;;;;;9163258;19;20441;-68
2023/09/16 11:15:37;;;;;;;8.90;6.03;;;27.20;69.70;;;;;;9160895;19;20018;-67
2023/09/16 11:18:43;;;;;;;8.30;5.68;;;27.30;70.40;;;;;;9162392;19;20022;-67
2023/09/16 11:21:54;;;;;;;7.78;5.63;;;27.40;73.80;;;;;;9160723;19;20018;-68
2023/09/16 11:25:03;;;;;;;8.68;5.07;;;27.40;70.90;;;;;;9153779;19;20168;-66
2023/09/16 11:28:11;;;;;;;6.82;4.82;;;27.60;70.00;;;;;;9163436;19;20101;-67
2023/09/16 11:31:17;;;;;;;11.30;4.20;;;27.60;69.60;;;;;;9158435;19;20018;-68
2023/09/16 11:34:26;;;;;;;11.82;4.78;;;27.70;70.60;;;;;;9155086;19;20017;-65
2023/09/16 11:37:36;;;;;;;6.60;3.80;;;27.70;70.70;;;;;;9154065;19;20015;-70
2023/09/16 11:40:46;;;;;;;6.35;4.07;;;27.70;70.00;;;;;;9165384;19;20010;-67
2023/09/16 11:43:51;;;;;;;7.85;3.80;;;27.80;71.30;;;;;;9165483;19;20024;-68
2023/09/16 11:47:00;;;;;;;10.68;4.30;;;28.20;75.80;;;;;;9165300;19;20578;-70
2023/09/16 11:50:10;;;;;;;6.38;4.22;;;28.00;74.20;;;;;;9161901;19;20026;-67
2023/09/16 11:53:20;;;;;;;9.45;4.20;;;28.00;72.30;;;;;;9165025;19;20015;-68
2023/09/16 11:56:27;;;;;;;9.05;3.90;;;28.10;73.50;;;;;;9164737;19;20023;-66
2023/09/16 11:59:35;;;;;;;6.78;4.40;;;28.20;72.20;;;;;;9162408;19;20491;-69
2023/09/16 12:02:40;;;;;;;4.20;3.10;;;28.30;71.60;;;;;;9165974;19;20018;-69
2023/09/16 12:05:48;;;;;;;7.85;2.97;;;28.30;71.40;;;;;;9165719;19;20026;-69
2023/09/16 12:08:58;;;;;;;7.82;3.33;;;28.40;71.00;;;;;;9165698;19;20053;-67
2023/09/16 12:12:08;;;;;;;8.70;3.13;;;28.40;70.70;;;;;;9163946;19;20015;-67
2023/09/16 12:15:13;;;;;;;5.80;2.70;;;28.50;70.60;;;;;;9160629;19;20410;-67
2023/09/16 12:18:21;;;;;;;7.03;3.65;;;28.40;64.00;;;;;;9162994;19;20022;-69
2023/09/16 12:21:26;;;;;;;7.53;3.30;;;28.40;64.20;;;;;;9164793;19;20014;-68
2023/09/16 12:24:36;;;;;;;6.10;3.03;;;28.50;64.90;;;;;;9163422;19;20018;-67
2023/09/16 12:27:42;;;;;;;3.28;2.53;;;28.40;65.50;;;;;;9162949;19;20052;-68
2023/09/16 12:30:51;;;;;;;7.20;3.20;;;28.50;64.90;;;;;;9164485;19;20010;-70
2023/09/16 12:33:57;;;;;;;10.18;3.67;;;28.40;61.80;;;;;;9167553;19;20006;-69
2023/09/16 12:37:05;;;;;;;5.35;3.17;;;28.40;62.60;;;;;;9165456;19;20472;-69
2023/09/16 12:40:14;;;;;;;5.50;3.03;;;28.50;63.50;;;;;;9167602;19;20091;-68
2023/09/16 12:43:21;;;;;;;4.45;2.33;;;28.30;64.00;;;;;;9170230;19;20015;-70
2023/09/16 12:46:30;;;;;;;4.05;2.42;;;28.60;63.00;;;;;;9168688;19;20033;-69
2023/09/16 12:49:40;;;;;;;7.57;2.35;;;28.50;62.30;;;;;;9167672;19;20014;-67
2023/09/16 12:52:46;;;;;;;3.20;2.00;;;28.60;62.50;;;;;;9169658;19;20018;-69
2023/09/16 12:55:56;;;;;;;3.20;2.28;;;28.60;62.40;;;;;;9166589;19;20022;-68
2023/09/16 12:59:03;;;;;;;6.78;2.47;;;28.50;62.10;;;;;;9167822;19;20554;-67
2023/09/16 13:02:11;;;;;;;5.18;2.83;;;28.50;61.70;;;;;;9169354;19;20575;-66
2023/09/16 13:05:18;;;;;;;7.78;3.30;;;28.60;62.30;;;;;;9168847;19;20397;-70
2023/09/16 13:08:27;;;;;;;4.88;2.80;;;28.50;61.60;;;;;;9167324;19;20022;-68
2023/09/16 13:11:36;;;;;;;5.03;3.22;;;28.50;61.70;;;;;;9167531;19;20367;-69
2023/09/16 13:14:43;;;;;;;5.10;3.10;;;28.50;61.50;;;;;;9162614;19;20018;-66
2023/09/16 13:17:55;;;;;;;4.25;2.85;;;28.40;62.20;;;;;;9164127;19;20026;-67
2023/09/16 13:21:03;;;;;;;4.93;2.85;;;28.40;62.40;;;;;;9160233;19;20023;-67
2023/09/16 13:24:08;;;;;;;4.38;2.60;;;28.40;62.30;;;;;;9157894;19;20491;-68
2023/09/16 13:27:21;;;;;;;4.60;3.00;;;28.50;62.10;;;;;;9161130;19;20018;-66
2023/09/16 13:30:29;;;;;;;4.45;2.75;;;28.40;61.60;;;;;;9161256;19;20031;-68
2023/09/16 13:33:49;;;;;;;5.78;2.95;;;28.40;61.50;;;;;;9164611;19;20023;-71
2023/09/16 13:36:54;;;;;;;2.67;2.17;;;28.30;60.80;;;;;;9167160;19;20025;-69
2023/09/16 13:40:10;;;;;;;5.85;3.13;;;28.40;60.80;;;;;;9166402;19;20476;-69
2023/09/16 13:43:18;;;;;;;3.63;2.10;;;28.30;60.90;;;;;;9164779;19;20018;-68
2023/09/16 13:46:25;;;;;;;6.45;2.67;;;28.30;61.20;;;;;;9166860;19;20112;-70
2023/09/16 13:49:32;;;;;;;4.20;3.28;;;28.30;61.90;;;;;;9165022;19;20018;-70
2023/09/16 13:52:40;;;;;;;4.53;2.85;;;28.30;62.30;;;;;;9165762;19;20014;-70
2023/09/16 13:55:46;;;;;;;8.75;3.13;;;28.30;59.10;;;;;;9163701;19;20015;-71
2023/09/16 13:58:56;;;;;;;4.28;2.97;;;28.20;59.10;;;;;;9165273;19;20672;-71
2023/09/16 14:02:02;;;;;;;9.05;3.70;;;28.20;59.10;;;;;;9164462;19;20454;-70
2023/09/16 14:05:10;;;;;;;5.78;2.72;;;28.20;59.30;;;;;;9166449;19;20034;-71
2023/09/16 14:08:15;;;;;;;4.65;2.95;;;28.20;59.10;;;;;;9165748;19;20038;-70
2023/09/16 14:11:23;;;;;;;10.05;3.40;;;28.20;59.40;;;;;;9165559;19;20029;-69
2023/09/16 14:14:31;;;;;;;4.38;2.80;;;28.10;58.90;;;;;;9159866;19;20023;-69
2023/09/16 14:17:38;;;;;;;4.65;3.00;;;28.10;59.30;;;;;;9163698;19;20025;-72
2023/09/16 14:20:43;;;;;;;5.72;2.83;;;28.10;59.20;;;;;;9164458;19;20021;-68
2023/09/16 14:23:51;;;;;;;5.25;2.75;;;28.10;59.30;;;;;;9164988;19;20014;-71
2023/09/16 14:26:56;;;;;;;7.50;2.90;;;28.10;59.50;;;;;;9163807;19;20794;-71
2023/09/16 14:30:07;;;;;;;4.00;2.83;;;28.10;59.60;;;;;;9164998;19;20014;-70
2023/09/16 14:33:13;;;;;;;7.10;3.53;;;28.10;59.20;;;;;;9165716;19;20702;-70
2023/09/16 14:36:20;;;;;;;5.85;3.65;;;28.10;59.50;;;;;;9165148;19;20019;-73
2023/09/16 14:39:26;;;;;;;6.10;3.38;;;28.00;59.80;;;;;;9162222;19;20019;-68
2023/09/16 14:42:33;;;;;;;4.60;2.88;;;28.00;60.10;;;;;;9164939;19;20022;-71
2023/09/16 14:45:41;;;;;;;5.60;3.28;;;27.90;60.00;;;;;;9162377;19;20011;-71
2023/09/16 14:48:51;;;;;;;4.68;3.03;;;27.90;60.30;;;;;;9162461;19;20010;-71
2023/09/16 14:51:57;;;;;;;5.38;2.70;;;27.90;60.90;;;;;;9163829;19;20018;-69
2023/09/16 14:55:07;;;;;;;7.97;3.30;;;27.80;61.90;;;;;;9163642;19;20029;-69
2023/09/16 14:58:13;;;;;;;4.78;2.70;;;27.60;61.50;;;;;;9164507;19;20463;-68
2023/09/16 15:01:23;;;;;;;4.50;2.88;;;27.60;62.10;;;;;;9163085;19;20025;-69
2023/09/16 15:04:29;;;;;;;6.10;3.70;;;27.70;62.40;;;;;;9159638;19;20029;-69
2023/09/16 15:07:38;;;;;;;5.22;3.30;;;27.60;62.80;;;;;;9159550;19;20093;-71
2023/09/16 15:10:46;;;;;;;6.00;3.00;;;27.50;63.00;;;;;;9160627;19;20643;-70
2023/09/16 15:13:54;;;;;;;4.53;3.05;;;27.50;64.30;;;;;;9161800;19;20097;-68
2023/09/16 15:17:02;;;;;;;5.38;2.90;;;27.50;65.10;;;;;;9158361;19;20022;-68
2023/09/16 15:20:10;;;;;;;4.45;2.88;;;27.40;65.60;;;;;;9158751;19;20402;-69
2023/09/16 15:23:16;;;;;;;5.03;3.40;;;27.30;66.50;;;;;;9161870;19;20022;-68
2023/09/16 15:26:23;;;;;;;7.35;3.08;;;27.40;62.40;;;;;;9161481;19;20014;-69
2023/09/16 15:29:28;;;;;;;4.50;3.22;;;27.30;62.70;;;;;;9162314;19;20615;-69
2023/09/16 15:32:38;;;;;;;3.33;2.63;;;27.40;62.70;;;;;;9163483;19;20018;-67
2023/09/16 15:35:51;;;;;;;6.70;3.42;;;27.20;63.90;;;;;;9163876;19;20760;-67
2023/09/16 15:38:59;;;;;;;3.58;3.03;;;27.20;60.30;;;;;;9164153;19;20017;-69
2023/09/16 15:42:04;;;;;;;5.00;2.90;;;27.20;61.40;;;;;;9161654;19;20026;-69
2023/09/16 15:45:13;;;;;;;4.75;3.13;;;27.10;62.30;;;;;;9165351;19;20022;-71
2023/09/16 15:48:21;;;;;;;6.05;2.92;;;27.10;62.80;;;;;;9165326;19;20019;-68
2023/09/16 15:51:28;;;;;;;5.05;3.17;;;27.10;62.90;;;;;;9162072;19;20033;-70
2023/09/16 15:54:34;;;;;;;9.88;3.42;;;27.10;62.40;;;;;;9166471;19;20022;-67
2023/09/16 15:57:43;;;;;;;6.10;2.80;;;26.90;62.20;;;;;;9169237;19;20014;-67
2023/09/16 16:00:51;;;;;;;10.13;2.83;;;26.90;62.60;;;;;;9167860;19;20011;-67
2023/09/16 16:04:02;;;;;;;3.15;2.80;;;26.80;63.50;;;;;;9166355;19;20025;-66
2023/09/16 16:07:07;;;;;;;3.53;2.83;;;26.70;63.60;;;;;;9167035;19;20033;-67
2023/09/16 16:10:16;;;;;;;5.47;3.60;;;26.70;63.70;;;;;;9167425;19;20018;-66